<?xml version="1.0" encoding="UTF-8"?><gpx creator="Wikiloc - http://www.wikiloc.com" version="1.1" xmlns="http://www.topografix.com/GPX/1/1" xmlns:xsi="http://www.w3.org/2001/XMLSchema-instance" xsi:schemaLocation="http://www.topografix.com/GPX/1/1 http://www.topografix.com/GPX/1/1/gpx.xsd"><wpt lat="39.322293" lon="-7.228965"><ele>502.0</ele><time>2015-07-22T10:27:12Z</time><name>Aceña de la Borrega</name><cmt></cmt><desc></desc></wpt><wpt lat="39.329795" lon="-7.218944"><ele>554.0</ele><time>2015-07-22T10:32:23Z</time><name>Dolmen Mellizo</name><cmt></cmt><desc></desc></wpt><wpt lat="39.334118" lon="-7.226638"><ele>576.0</ele><time>2015-07-22T11:22:45Z</time><name>Dolmen Data II</name><cmt></cmt><desc></desc></wpt><wpt lat="39.333241" lon="-7.226764"><ele>570.0</ele><time>2015-07-22T11:22:58Z</time><name>Dolmen Data I</name><cmt></cmt><desc></desc></wpt><wpt lat="39.329351" lon="-7.205593"><ele>522.0</ele><time>2015-07-22T11:23:21Z</time><name>Dolmen Cajirón II</name><cmt></cmt><desc></desc></wpt><wpt lat="39.335626" lon="-7.192765"><ele>610.0</ele><time>2015-07-22T11:24:00Z</time><name>Ermita Ntra. Sra. de la Cabeza</name><cmt></cmt><desc></desc></wpt><wpt lat="39.326920" lon="-7.208915"><ele>521.0</ele><time>2015-07-22T11:36:13Z</time><name>Dolmen Cajirón I</name><cmt></cmt><desc></desc></wpt><wpt lat="39.362427" lon="-7.138014"><ele>505.0</ele><time>2015-07-22T11:39:52Z</time><name>San Vicente de Alcántara</name><cmt></cmt><desc></desc></wpt><trk><name>PR-BA/CC 102 'Los Dólmenes' (San Vicente de Alcántara)</name><cmt></cmt><desc></desc><trkseg><trkpt lat="39.362432" lon="-7.138031"><ele>504.7</ele><time>2015-01-01T10:00:41Z</time></trkpt><trkpt lat="39.362471" lon="-7.138245"><ele>505.0</ele><time>2015-01-01T10:01:22Z</time></trkpt><trkpt lat="39.362979" lon="-7.138751"><ele>502.0</ele><time>2015-01-01T10:02:03Z</time></trkpt><trkpt lat="39.362785" lon="-7.138976"><ele>502.3</ele><time>2015-01-01T10:02:44Z</time></trkpt><trkpt lat="39.362644" lon="-7.139150"><ele>501.6</ele><time>2015-01-01T10:03:25Z</time></trkpt><trkpt lat="39.362968" lon="-7.139552"><ele>497.6</ele><time>2015-01-01T10:04:06Z</time></trkpt><trkpt lat="39.363077" lon="-7.139671"><ele>496.9</ele><time>2015-01-01T10:04:47Z</time></trkpt><trkpt lat="39.363043" lon="-7.139744"><ele>497.2</ele><time>2015-01-01T10:05:28Z</time></trkpt><trkpt lat="39.362932" lon="-7.139849"><ele>498.3</ele><time>2015-01-01T10:06:09Z</time></trkpt><trkpt lat="39.362194" lon="-7.140357"><ele>501.7</ele><time>2015-01-01T10:06:51Z</time></trkpt><trkpt lat="39.361847" lon="-7.140475"><ele>502.7</ele><time>2015-01-01T10:07:32Z</time></trkpt><trkpt lat="39.361774" lon="-7.140576"><ele>503.2</ele><time>2015-01-01T10:08:13Z</time></trkpt><trkpt lat="39.361853" lon="-7.141009"><ele>501.7</ele><time>2015-01-01T10:08:54Z</time></trkpt><trkpt lat="39.362079" lon="-7.141772"><ele>500.6</ele><time>2015-01-01T10:09:35Z</time></trkpt><trkpt lat="39.362310" lon="-7.142526"><ele>499.9</ele><time>2015-01-01T10:10:16Z</time></trkpt><trkpt lat="39.362446" lon="-7.143021"><ele>496.3</ele><time>2015-01-01T10:10:57Z</time></trkpt><trkpt lat="39.362545" lon="-7.143437"><ele>495.4</ele><time>2015-01-01T10:11:38Z</time></trkpt><trkpt lat="39.362729" lon="-7.144373"><ele>498.4</ele><time>2015-01-01T10:12:19Z</time></trkpt><trkpt lat="39.362728" lon="-7.144806"><ele>497.2</ele><time>2015-01-01T10:13:00Z</time></trkpt><trkpt lat="39.362670" lon="-7.146677"><ele>506.0</ele><time>2015-01-01T10:13:42Z</time></trkpt><trkpt lat="39.362628" lon="-7.146959"><ele>506.0</ele><time>2015-01-01T10:14:23Z</time></trkpt><trkpt lat="39.362261" lon="-7.147997"><ele>507.0</ele><time>2015-01-01T10:15:04Z</time></trkpt><trkpt lat="39.362180" lon="-7.148549"><ele>506.2</ele><time>2015-01-01T10:15:45Z</time></trkpt><trkpt lat="39.362209" lon="-7.148880"><ele>506.1</ele><time>2015-01-01T10:16:26Z</time></trkpt><trkpt lat="39.362344" lon="-7.149315"><ele>505.0</ele><time>2015-01-01T10:17:07Z</time></trkpt><trkpt lat="39.362621" lon="-7.149815"><ele>502.7</ele><time>2015-01-01T10:17:48Z</time></trkpt><trkpt lat="39.362801" lon="-7.150361"><ele>504.2</ele><time>2015-01-01T10:18:29Z</time></trkpt><trkpt lat="39.362904" lon="-7.150814"><ele>504.5</ele><time>2015-01-01T10:19:10Z</time></trkpt><trkpt lat="39.363037" lon="-7.151566"><ele>505.1</ele><time>2015-01-01T10:19:51Z</time></trkpt><trkpt lat="39.363386" lon="-7.152677"><ele>507.9</ele><time>2015-01-01T10:20:33Z</time></trkpt><trkpt lat="39.363763" lon="-7.154303"><ele>505.7</ele><time>2015-01-01T10:21:14Z</time></trkpt><trkpt lat="39.363875" lon="-7.154501"><ele>506.4</ele><time>2015-01-01T10:21:55Z</time></trkpt><trkpt lat="39.364787" lon="-7.155628"><ele>506.8</ele><time>2015-01-01T10:22:36Z</time></trkpt><trkpt lat="39.364972" lon="-7.155949"><ele>506.4</ele><time>2015-01-01T10:23:17Z</time></trkpt><trkpt lat="39.365039" lon="-7.156571"><ele>504.9</ele><time>2015-01-01T10:23:58Z</time></trkpt><trkpt lat="39.364861" lon="-7.157300"><ele>506.3</ele><time>2015-01-01T10:24:39Z</time></trkpt><trkpt lat="39.364640" lon="-7.157801"><ele>509.4</ele><time>2015-01-01T10:25:20Z</time></trkpt><trkpt lat="39.364529" lon="-7.158267"><ele>512.4</ele><time>2015-01-01T10:26:01Z</time></trkpt><trkpt lat="39.364539" lon="-7.158911"><ele>515.8</ele><time>2015-01-01T10:26:42Z</time></trkpt><trkpt lat="39.364608" lon="-7.159268"><ele>517.2</ele><time>2015-01-01T10:27:24Z</time></trkpt><trkpt lat="39.364858" lon="-7.160133"><ele>513.6</ele><time>2015-01-01T10:28:05Z</time></trkpt><trkpt lat="39.364918" lon="-7.160677"><ele>512.0</ele><time>2015-01-01T10:28:46Z</time></trkpt><trkpt lat="39.365071" lon="-7.161233"><ele>513.8</ele><time>2015-01-01T10:29:27Z</time></trkpt><trkpt lat="39.365208" lon="-7.161920"><ele>511.4</ele><time>2015-01-01T10:30:08Z</time></trkpt><trkpt lat="39.365457" lon="-7.162547"><ele>506.8</ele><time>2015-01-01T10:30:49Z</time></trkpt><trkpt lat="39.365764" lon="-7.163200"><ele>506.0</ele><time>2015-01-01T10:31:30Z</time></trkpt><trkpt lat="39.366138" lon="-7.163860"><ele>508.7</ele><time>2015-01-01T10:32:11Z</time></trkpt><trkpt lat="39.366562" lon="-7.164430"><ele>509.3</ele><time>2015-01-01T10:32:52Z</time></trkpt><trkpt lat="39.366896" lon="-7.164828"><ele>512.5</ele><time>2015-01-01T10:33:33Z</time></trkpt><trkpt lat="39.367280" lon="-7.165436"><ele>516.4</ele><time>2015-01-01T10:34:15Z</time></trkpt><trkpt lat="39.368522" lon="-7.166740"><ele>519.0</ele><time>2015-01-01T10:34:56Z</time></trkpt><trkpt lat="39.368668" lon="-7.167035"><ele>519.5</ele><time>2015-01-01T10:35:37Z</time></trkpt><trkpt lat="39.368690" lon="-7.167194"><ele>520.2</ele><time>2015-01-01T10:36:18Z</time></trkpt><trkpt lat="39.368645" lon="-7.167343"><ele>520.9</ele><time>2015-01-01T10:36:59Z</time></trkpt><trkpt lat="39.368425" lon="-7.167918"><ele>524.3</ele><time>2015-01-01T10:37:40Z</time></trkpt><trkpt lat="39.368315" lon="-7.168478"><ele>528.0</ele><time>2015-01-01T10:38:21Z</time></trkpt><trkpt lat="39.368404" lon="-7.168815"><ele>530.0</ele><time>2015-01-01T10:39:02Z</time></trkpt><trkpt lat="39.368591" lon="-7.169292"><ele>530.5</ele><time>2015-01-01T10:39:43Z</time></trkpt><trkpt lat="39.368705" lon="-7.169849"><ele>531.8</ele><time>2015-01-01T10:40:24Z</time></trkpt><trkpt lat="39.368548" lon="-7.170140"><ele>532.8</ele><time>2015-01-01T10:41:06Z</time></trkpt><trkpt lat="39.368043" lon="-7.171347"><ele>535.7</ele><time>2015-01-01T10:41:47Z</time></trkpt><trkpt lat="39.367979" lon="-7.171680"><ele>537.0</ele><time>2015-01-01T10:42:28Z</time></trkpt><trkpt lat="39.367838" lon="-7.172167"><ele>536.8</ele><time>2015-01-01T10:43:09Z</time></trkpt><trkpt lat="39.367936" lon="-7.172789"><ele>536.8</ele><time>2015-01-01T10:43:50Z</time></trkpt><trkpt lat="39.367859" lon="-7.172975"><ele>536.7</ele><time>2015-01-01T10:44:31Z</time></trkpt><trkpt lat="39.367677" lon="-7.173164"><ele>536.6</ele><time>2015-01-01T10:45:12Z</time></trkpt><trkpt lat="39.367264" lon="-7.173705"><ele>535.5</ele><time>2015-01-01T10:45:53Z</time></trkpt><trkpt lat="39.366979" lon="-7.174028"><ele>535.4</ele><time>2015-01-01T10:46:34Z</time></trkpt><trkpt lat="39.366564" lon="-7.174430"><ele>535.1</ele><time>2015-01-01T10:47:15Z</time></trkpt><trkpt lat="39.366235" lon="-7.174803"><ele>531.7</ele><time>2015-01-01T10:47:57Z</time></trkpt><trkpt lat="39.365467" lon="-7.175371"><ele>527.1</ele><time>2015-01-01T10:48:38Z</time></trkpt><trkpt lat="39.365254" lon="-7.175563"><ele>528.0</ele><time>2015-01-01T10:49:19Z</time></trkpt><trkpt lat="39.364665" lon="-7.175634"><ele>527.6</ele><time>2015-01-01T10:50:00Z</time></trkpt><trkpt lat="39.364593" lon="-7.175573"><ele>528.3</ele><time>2015-01-01T10:50:41Z</time></trkpt><trkpt lat="39.364523" lon="-7.175409"><ele>529.4</ele><time>2015-01-01T10:51:22Z</time></trkpt><trkpt lat="39.364495" lon="-7.175378"><ele>529.6</ele><time>2015-01-01T10:52:03Z</time></trkpt><trkpt lat="39.364456" lon="-7.175374"><ele>529.6</ele><time>2015-01-01T10:52:44Z</time></trkpt><trkpt lat="39.364314" lon="-7.175387"><ele>530.5</ele><time>2015-01-01T10:53:25Z</time></trkpt><trkpt lat="39.364154" lon="-7.175477"><ele>531.3</ele><time>2015-01-01T10:54:06Z</time></trkpt><trkpt lat="39.364033" lon="-7.175571"><ele>530.9</ele><time>2015-01-01T10:54:48Z</time></trkpt><trkpt lat="39.363849" lon="-7.175620"><ele>530.9</ele><time>2015-01-01T10:55:29Z</time></trkpt><trkpt lat="39.363806" lon="-7.175696"><ele>530.6</ele><time>2015-01-01T10:56:10Z</time></trkpt><trkpt lat="39.363807" lon="-7.175809"><ele>530.1</ele><time>2015-01-01T10:56:51Z</time></trkpt><trkpt lat="39.363866" lon="-7.176647"><ele>527.1</ele><time>2015-01-01T10:57:32Z</time></trkpt><trkpt lat="39.363556" lon="-7.177328"><ele>528.8</ele><time>2015-01-01T10:58:13Z</time></trkpt><trkpt lat="39.362894" lon="-7.177852"><ele>528.4</ele><time>2015-01-01T10:58:54Z</time></trkpt><trkpt lat="39.362244" lon="-7.178534"><ele>529.0</ele><time>2015-01-01T10:59:35Z</time></trkpt><trkpt lat="39.361863" lon="-7.178773"><ele>526.0</ele><time>2015-01-01T11:00:16Z</time></trkpt><trkpt lat="39.361663" lon="-7.178973"><ele>523.0</ele><time>2015-01-01T11:00:57Z</time></trkpt><trkpt lat="39.361486" lon="-7.179296"><ele>521.2</ele><time>2015-01-01T11:01:39Z</time></trkpt><trkpt lat="39.361425" lon="-7.179600"><ele>519.6</ele><time>2015-01-01T11:02:20Z</time></trkpt><trkpt lat="39.361343" lon="-7.179926"><ele>516.9</ele><time>2015-01-01T11:03:01Z</time></trkpt><trkpt lat="39.361196" lon="-7.180849"><ele>516.3</ele><time>2015-01-01T11:03:42Z</time></trkpt><trkpt lat="39.361220" lon="-7.181411"><ele>514.5</ele><time>2015-01-01T11:04:23Z</time></trkpt><trkpt lat="39.360997" lon="-7.182199"><ele>515.7</ele><time>2015-01-01T11:05:04Z</time></trkpt><trkpt lat="39.360885" lon="-7.182744"><ele>519.0</ele><time>2015-01-01T11:05:45Z</time></trkpt><trkpt lat="39.360733" lon="-7.183874"><ele>529.1</ele><time>2015-01-01T11:06:26Z</time></trkpt><trkpt lat="39.360682" lon="-7.184192"><ele>531.2</ele><time>2015-01-01T11:07:07Z</time></trkpt><trkpt lat="39.360598" lon="-7.184422"><ele>532.8</ele><time>2015-01-01T11:07:48Z</time></trkpt><trkpt lat="39.360522" lon="-7.184739"><ele>535.1</ele><time>2015-01-01T11:08:30Z</time></trkpt><trkpt lat="39.360526" lon="-7.184913"><ele>535.8</ele><time>2015-01-01T11:09:11Z</time></trkpt><trkpt lat="39.360636" lon="-7.185281"><ele>537.3</ele><time>2015-01-01T11:09:52Z</time></trkpt><trkpt lat="39.360821" lon="-7.185641"><ele>537.0</ele><time>2015-01-01T11:10:33Z</time></trkpt><trkpt lat="39.360894" lon="-7.186036"><ele>531.8</ele><time>2015-01-01T11:11:14Z</time></trkpt><trkpt lat="39.361135" lon="-7.186345"><ele>528.3</ele><time>2015-01-01T11:11:55Z</time></trkpt><trkpt lat="39.361102" lon="-7.186396"><ele>528.0</ele><time>2015-01-01T11:12:36Z</time></trkpt><trkpt lat="39.360953" lon="-7.186456"><ele>528.2</ele><time>2015-01-01T11:13:17Z</time></trkpt><trkpt lat="39.360817" lon="-7.186708"><ele>527.6</ele><time>2015-01-01T11:13:58Z</time></trkpt><trkpt lat="39.360795" lon="-7.186911"><ele>525.7</ele><time>2015-01-01T11:14:39Z</time></trkpt><trkpt lat="39.360656" lon="-7.187474"><ele>524.2</ele><time>2015-01-01T11:15:21Z</time></trkpt><trkpt lat="39.360488" lon="-7.187981"><ele>524.3</ele><time>2015-01-01T11:16:02Z</time></trkpt><trkpt lat="39.360408" lon="-7.188192"><ele>523.4</ele><time>2015-01-01T11:16:43Z</time></trkpt><trkpt lat="39.360339" lon="-7.188388"><ele>522.8</ele><time>2015-01-01T11:17:24Z</time></trkpt><trkpt lat="39.360043" lon="-7.188922"><ele>521.7</ele><time>2015-01-01T11:18:05Z</time></trkpt><trkpt lat="39.360026" lon="-7.189223"><ele>520.6</ele><time>2015-01-01T11:18:46Z</time></trkpt><trkpt lat="39.359706" lon="-7.189510"><ele>516.9</ele><time>2015-01-01T11:19:27Z</time></trkpt><trkpt lat="39.359671" lon="-7.190012"><ele>515.4</ele><time>2015-01-01T11:20:08Z</time></trkpt><trkpt lat="39.359225" lon="-7.190601"><ele>517.7</ele><time>2015-01-01T11:20:49Z</time></trkpt><trkpt lat="39.358865" lon="-7.190936"><ele>517.1</ele><time>2015-01-01T11:21:30Z</time></trkpt><trkpt lat="39.358781" lon="-7.191144"><ele>517.5</ele><time>2015-01-01T11:22:12Z</time></trkpt><trkpt lat="39.358711" lon="-7.191279"><ele>517.9</ele><time>2015-01-01T11:22:53Z</time></trkpt><trkpt lat="39.358517" lon="-7.191436"><ele>518.8</ele><time>2015-01-01T11:23:34Z</time></trkpt><trkpt lat="39.358211" lon="-7.191897"><ele>520.2</ele><time>2015-01-01T11:24:15Z</time></trkpt><trkpt lat="39.357980" lon="-7.192125"><ele>519.8</ele><time>2015-01-01T11:24:56Z</time></trkpt><trkpt lat="39.358272" lon="-7.192628"><ele>520.7</ele><time>2015-01-01T11:25:37Z</time></trkpt><trkpt lat="39.358337" lon="-7.192871"><ele>522.7</ele><time>2015-01-01T11:26:18Z</time></trkpt><trkpt lat="39.358556" lon="-7.193115"><ele>525.2</ele><time>2015-01-01T11:26:59Z</time></trkpt><trkpt lat="39.358695" lon="-7.193177"><ele>526.3</ele><time>2015-01-01T11:27:40Z</time></trkpt><trkpt lat="39.358790" lon="-7.193221"><ele>527.1</ele><time>2015-01-01T11:28:21Z</time></trkpt><trkpt lat="39.358994" lon="-7.193435"><ele>528.4</ele><time>2015-01-01T11:29:03Z</time></trkpt><trkpt lat="39.359182" lon="-7.193743"><ele>529.5</ele><time>2015-01-01T11:29:44Z</time></trkpt><trkpt lat="39.359359" lon="-7.194129"><ele>531.6</ele><time>2015-01-01T11:30:25Z</time></trkpt><trkpt lat="39.359417" lon="-7.194290"><ele>532.3</ele><time>2015-01-01T11:31:06Z</time></trkpt><trkpt lat="39.359041" lon="-7.194825"><ele>533.1</ele><time>2015-01-01T11:31:47Z</time></trkpt><trkpt lat="39.358732" lon="-7.195265"><ele>533.4</ele><time>2015-01-01T11:32:28Z</time></trkpt><trkpt lat="39.357972" lon="-7.195798"><ele>535.1</ele><time>2015-01-01T11:33:09Z</time></trkpt><trkpt lat="39.357490" lon="-7.196011"><ele>535.0</ele><time>2015-01-01T11:33:50Z</time></trkpt><trkpt lat="39.356997" lon="-7.196185"><ele>533.9</ele><time>2015-01-01T11:34:31Z</time></trkpt><trkpt lat="39.356491" lon="-7.196318"><ele>535.9</ele><time>2015-01-01T11:35:12Z</time></trkpt><trkpt lat="39.356192" lon="-7.196601"><ele>537.6</ele><time>2015-01-01T11:35:54Z</time></trkpt><trkpt lat="39.355641" lon="-7.196949"><ele>537.0</ele><time>2015-01-01T11:36:35Z</time></trkpt><trkpt lat="39.355572" lon="-7.196978"><ele>537.0</ele><time>2015-01-01T11:37:16Z</time></trkpt><trkpt lat="39.355468" lon="-7.196989"><ele>537.4</ele><time>2015-01-01T11:37:57Z</time></trkpt><trkpt lat="39.355361" lon="-7.196905"><ele>537.7</ele><time>2015-01-01T11:38:38Z</time></trkpt><trkpt lat="39.354736" lon="-7.196431"><ele>536.0</ele><time>2015-01-01T11:39:19Z</time></trkpt><trkpt lat="39.354211" lon="-7.195716"><ele>534.0</ele><time>2015-01-01T11:40:00Z</time></trkpt><trkpt lat="39.354129" lon="-7.195587"><ele>534.2</ele><time>2015-01-01T11:40:41Z</time></trkpt><trkpt lat="39.354190" lon="-7.195487"><ele>534.2</ele><time>2015-01-01T11:41:22Z</time></trkpt><trkpt lat="39.354213" lon="-7.195379"><ele>534.4</ele><time>2015-01-01T11:42:03Z</time></trkpt><trkpt lat="39.354205" lon="-7.195306"><ele>534.7</ele><time>2015-01-01T11:42:45Z</time></trkpt><trkpt lat="39.354152" lon="-7.195230"><ele>534.7</ele><time>2015-01-01T11:43:26Z</time></trkpt><trkpt lat="39.354059" lon="-7.195148"><ele>534.5</ele><time>2015-01-01T11:44:07Z</time></trkpt><trkpt lat="39.353090" lon="-7.194407"><ele>535.5</ele><time>2015-01-01T11:44:48Z</time></trkpt><trkpt lat="39.352857" lon="-7.194062"><ele>535.2</ele><time>2015-01-01T11:45:29Z</time></trkpt><trkpt lat="39.352161" lon="-7.193021"><ele>537.7</ele><time>2015-01-01T11:46:10Z</time></trkpt><trkpt lat="39.351986" lon="-7.192729"><ele>537.0</ele><time>2015-01-01T11:46:51Z</time></trkpt><trkpt lat="39.351878" lon="-7.192207"><ele>538.0</ele><time>2015-01-01T11:47:32Z</time></trkpt><trkpt lat="39.351710" lon="-7.191982"><ele>538.1</ele><time>2015-01-01T11:48:13Z</time></trkpt><trkpt lat="39.351478" lon="-7.191727"><ele>539.4</ele><time>2015-01-01T11:48:54Z</time></trkpt><trkpt lat="39.350825" lon="-7.190554"><ele>536.1</ele><time>2015-01-01T11:49:36Z</time></trkpt><trkpt lat="39.350495" lon="-7.190183"><ele>536.9</ele><time>2015-01-01T11:50:17Z</time></trkpt><trkpt lat="39.350326" lon="-7.189824"><ele>535.3</ele><time>2015-01-01T11:50:58Z</time></trkpt><trkpt lat="39.350155" lon="-7.189487"><ele>538.1</ele><time>2015-01-01T11:51:39Z</time></trkpt><trkpt lat="39.349991" lon="-7.189035"><ele>538.2</ele><time>2015-01-01T11:52:20Z</time></trkpt><trkpt lat="39.349906" lon="-7.188417"><ele>535.9</ele><time>2015-01-01T11:53:01Z</time></trkpt><trkpt lat="39.349871" lon="-7.188003"><ele>536.1</ele><time>2015-01-01T11:53:42Z</time></trkpt><trkpt lat="39.349772" lon="-7.187750"><ele>535.5</ele><time>2015-01-01T11:54:23Z</time></trkpt><trkpt lat="39.349612" lon="-7.187506"><ele>533.7</ele><time>2015-01-01T11:55:04Z</time></trkpt><trkpt lat="39.349163" lon="-7.187284"><ele>530.6</ele><time>2015-01-01T11:55:45Z</time></trkpt><trkpt lat="39.348955" lon="-7.187345"><ele>529.8</ele><time>2015-01-01T11:56:27Z</time></trkpt><trkpt lat="39.348722" lon="-7.187432"><ele>530.3</ele><time>2015-01-01T11:57:08Z</time></trkpt><trkpt lat="39.348275" lon="-7.187201"><ele>531.0</ele><time>2015-01-01T11:57:49Z</time></trkpt><trkpt lat="39.347827" lon="-7.187049"><ele>530.4</ele><time>2015-01-01T11:58:30Z</time></trkpt><trkpt lat="39.347524" lon="-7.186891"><ele>528.4</ele><time>2015-01-01T11:59:11Z</time></trkpt><trkpt lat="39.347397" lon="-7.186918"><ele>529.0</ele><time>2015-01-01T11:59:52Z</time></trkpt><trkpt lat="39.346948" lon="-7.187013"><ele>532.0</ele><time>2015-01-01T12:00:33Z</time></trkpt><trkpt lat="39.346732" lon="-7.187004"><ele>534.0</ele><time>2015-01-01T12:01:14Z</time></trkpt><trkpt lat="39.346521" lon="-7.186965"><ele>535.3</ele><time>2015-01-01T12:01:55Z</time></trkpt><trkpt lat="39.346250" lon="-7.187046"><ele>537.6</ele><time>2015-01-01T12:02:36Z</time></trkpt><trkpt lat="39.346015" lon="-7.187181"><ele>540.0</ele><time>2015-01-01T12:03:18Z</time></trkpt><trkpt lat="39.345678" lon="-7.187218"><ele>541.0</ele><time>2015-01-01T12:03:59Z</time></trkpt><trkpt lat="39.345467" lon="-7.187202"><ele>540.5</ele><time>2015-01-01T12:04:40Z</time></trkpt><trkpt lat="39.345386" lon="-7.187215"><ele>540.3</ele><time>2015-01-01T12:05:21Z</time></trkpt><trkpt lat="39.344989" lon="-7.187169"><ele>539.5</ele><time>2015-01-01T12:06:02Z</time></trkpt><trkpt lat="39.344766" lon="-7.187036"><ele>538.3</ele><time>2015-01-01T12:06:43Z</time></trkpt><trkpt lat="39.344640" lon="-7.187003"><ele>537.6</ele><time>2015-01-01T12:07:24Z</time></trkpt><trkpt lat="39.344251" lon="-7.187031"><ele>537.6</ele><time>2015-01-01T12:08:05Z</time></trkpt><trkpt lat="39.343746" lon="-7.187027"><ele>536.8</ele><time>2015-01-01T12:08:46Z</time></trkpt><trkpt lat="39.343418" lon="-7.187131"><ele>537.5</ele><time>2015-01-01T12:09:27Z</time></trkpt><trkpt lat="39.343088" lon="-7.187218"><ele>537.9</ele><time>2015-01-01T12:10:09Z</time></trkpt><trkpt lat="39.342872" lon="-7.187183"><ele>535.5</ele><time>2015-01-01T12:10:50Z</time></trkpt><trkpt lat="39.342423" lon="-7.187313"><ele>531.2</ele><time>2015-01-01T12:11:31Z</time></trkpt><trkpt lat="39.342232" lon="-7.187415"><ele>530.9</ele><time>2015-01-01T12:12:12Z</time></trkpt><trkpt lat="39.341958" lon="-7.187490"><ele>530.0</ele><time>2015-01-01T12:12:53Z</time></trkpt><trkpt lat="39.341391" lon="-7.187699"><ele>533.9</ele><time>2015-01-01T12:13:34Z</time></trkpt><trkpt lat="39.340982" lon="-7.187802"><ele>531.4</ele><time>2015-01-01T12:14:15Z</time></trkpt><trkpt lat="39.340773" lon="-7.187881"><ele>531.5</ele><time>2015-01-01T12:14:56Z</time></trkpt><trkpt lat="39.340032" lon="-7.188497"><ele>535.4</ele><time>2015-01-01T12:15:37Z</time></trkpt><trkpt lat="39.339663" lon="-7.188648"><ele>539.8</ele><time>2015-01-01T12:16:18Z</time></trkpt><trkpt lat="39.339364" lon="-7.188742"><ele>542.3</ele><time>2015-01-01T12:17:00Z</time></trkpt><trkpt lat="39.339107" lon="-7.188922"><ele>542.5</ele><time>2015-01-01T12:17:41Z</time></trkpt><trkpt lat="39.338966" lon="-7.189098"><ele>541.6</ele><time>2015-01-01T12:18:22Z</time></trkpt><trkpt lat="39.338871" lon="-7.189548"><ele>543.3</ele><time>2015-01-01T12:19:03Z</time></trkpt><trkpt lat="39.338951" lon="-7.189720"><ele>544.8</ele><time>2015-01-01T12:19:44Z</time></trkpt><trkpt lat="39.338913" lon="-7.189792"><ele>546.8</ele><time>2015-01-01T12:20:25Z</time></trkpt><trkpt lat="39.338838" lon="-7.189791"><ele>547.8</ele><time>2015-01-01T12:21:06Z</time></trkpt><trkpt lat="39.338736" lon="-7.189823"><ele>550.3</ele><time>2015-01-01T12:21:47Z</time></trkpt><trkpt lat="39.338513" lon="-7.189801"><ele>552.2</ele><time>2015-01-01T12:22:28Z</time></trkpt><trkpt lat="39.338283" lon="-7.189700"><ele>551.9</ele><time>2015-01-01T12:23:09Z</time></trkpt><trkpt lat="39.338113" lon="-7.189650"><ele>552.0</ele><time>2015-01-01T12:23:51Z</time></trkpt><trkpt lat="39.337462" lon="-7.189690"><ele>555.9</ele><time>2015-01-01T12:24:32Z</time></trkpt><trkpt lat="39.337078" lon="-7.189785"><ele>560.2</ele><time>2015-01-01T12:25:13Z</time></trkpt><trkpt lat="39.336460" lon="-7.190101"><ele>558.8</ele><time>2015-01-01T12:25:54Z</time></trkpt><trkpt lat="39.336070" lon="-7.190076"><ele>561.8</ele><time>2015-01-01T12:26:35Z</time></trkpt><trkpt lat="39.335127" lon="-7.190424"><ele>559.8</ele><time>2015-01-01T12:27:16Z</time></trkpt><trkpt lat="39.334850" lon="-7.190499"><ele>558.7</ele><time>2015-01-01T12:27:57Z</time></trkpt><trkpt lat="39.334796" lon="-7.190506"><ele>558.4</ele><time>2015-01-01T12:28:38Z</time></trkpt><trkpt lat="39.334670" lon="-7.190562"><ele>558.1</ele><time>2015-01-01T12:29:19Z</time></trkpt><trkpt lat="39.334606" lon="-7.190624"><ele>558.7</ele><time>2015-01-01T12:30:00Z</time></trkpt><trkpt lat="39.334074" lon="-7.191018"><ele>562.4</ele><time>2015-01-01T12:30:42Z</time></trkpt><trkpt lat="39.333622" lon="-7.191510"><ele>563.5</ele><time>2015-01-01T12:31:23Z</time></trkpt><trkpt lat="39.333373" lon="-7.191601"><ele>563.2</ele><time>2015-01-01T12:32:04Z</time></trkpt><trkpt lat="39.333075" lon="-7.191757"><ele>560.9</ele><time>2015-01-01T12:32:45Z</time></trkpt><trkpt lat="39.332880" lon="-7.191915"><ele>559.3</ele><time>2015-01-01T12:33:26Z</time></trkpt><trkpt lat="39.332827" lon="-7.191929"><ele>558.6</ele><time>2015-01-01T12:34:07Z</time></trkpt><trkpt lat="39.332585" lon="-7.191903"><ele>555.2</ele><time>2015-01-01T12:34:48Z</time></trkpt><trkpt lat="39.332356" lon="-7.191956"><ele>553.0</ele><time>2015-01-01T12:35:29Z</time></trkpt><trkpt lat="39.332056" lon="-7.192335"><ele>552.1</ele><time>2015-01-01T12:36:10Z</time></trkpt><trkpt lat="39.331992" lon="-7.192728"><ele>554.5</ele><time>2015-01-01T12:36:51Z</time></trkpt><trkpt lat="39.331901" lon="-7.192814"><ele>555.3</ele><time>2015-01-01T12:37:33Z</time></trkpt><trkpt lat="39.331440" lon="-7.192710"><ele>547.9</ele><time>2015-01-01T12:38:14Z</time></trkpt><trkpt lat="39.331288" lon="-7.192778"><ele>547.6</ele><time>2015-01-01T12:38:55Z</time></trkpt><trkpt lat="39.331040" lon="-7.192784"><ele>546.8</ele><time>2015-01-01T12:39:36Z</time></trkpt><trkpt lat="39.330850" lon="-7.192981"><ele>547.6</ele><time>2015-01-01T12:40:17Z</time></trkpt><trkpt lat="39.330264" lon="-7.193593"><ele>540.9</ele><time>2015-01-01T12:40:58Z</time></trkpt><trkpt lat="39.329828" lon="-7.193912"><ele>543.5</ele><time>2015-01-01T12:41:39Z</time></trkpt><trkpt lat="39.329537" lon="-7.194032"><ele>545.8</ele><time>2015-01-01T12:42:20Z</time></trkpt><trkpt lat="39.329313" lon="-7.194093"><ele>546.2</ele><time>2015-01-01T12:43:01Z</time></trkpt><trkpt lat="39.328909" lon="-7.194249"><ele>547.3</ele><time>2015-01-01T12:43:42Z</time></trkpt><trkpt lat="39.328445" lon="-7.194530"><ele>547.1</ele><time>2015-01-01T12:44:24Z</time></trkpt><trkpt lat="39.328162" lon="-7.194873"><ele>548.7</ele><time>2015-01-01T12:45:05Z</time></trkpt><trkpt lat="39.327989" lon="-7.195185"><ele>550.3</ele><time>2015-01-01T12:45:46Z</time></trkpt><trkpt lat="39.327898" lon="-7.195425"><ele>550.4</ele><time>2015-01-01T12:46:27Z</time></trkpt><trkpt lat="39.327803" lon="-7.195558"><ele>549.3</ele><time>2015-01-01T12:47:08Z</time></trkpt><trkpt lat="39.327708" lon="-7.195664"><ele>548.6</ele><time>2015-01-01T12:47:49Z</time></trkpt><trkpt lat="39.327354" lon="-7.196036"><ele>548.2</ele><time>2015-01-01T12:48:30Z</time></trkpt><trkpt lat="39.327163" lon="-7.196099"><ele>548.9</ele><time>2015-01-01T12:49:11Z</time></trkpt><trkpt lat="39.327094" lon="-7.196159"><ele>549.3</ele><time>2015-01-01T12:49:52Z</time></trkpt><trkpt lat="39.326981" lon="-7.196556"><ele>552.2</ele><time>2015-01-01T12:50:33Z</time></trkpt><trkpt lat="39.326922" lon="-7.196972"><ele>553.0</ele><time>2015-01-01T12:51:15Z</time></trkpt><trkpt lat="39.326758" lon="-7.197603"><ele>549.3</ele><time>2015-01-01T12:51:56Z</time></trkpt><trkpt lat="39.326412" lon="-7.198241"><ele>543.5</ele><time>2015-01-01T12:52:37Z</time></trkpt><trkpt lat="39.326209" lon="-7.198806"><ele>540.5</ele><time>2015-01-01T12:53:18Z</time></trkpt><trkpt lat="39.326130" lon="-7.198895"><ele>540.1</ele><time>2015-01-01T12:53:59Z</time></trkpt><trkpt lat="39.325948" lon="-7.199023"><ele>540.2</ele><time>2015-01-01T12:54:40Z</time></trkpt><trkpt lat="39.325719" lon="-7.199260"><ele>541.0</ele><time>2015-01-01T12:55:21Z</time></trkpt><trkpt lat="39.325647" lon="-7.200039"><ele>543.1</ele><time>2015-01-01T12:56:02Z</time></trkpt><trkpt lat="39.325512" lon="-7.200615"><ele>539.5</ele><time>2015-01-01T12:56:43Z</time></trkpt><trkpt lat="39.325351" lon="-7.201566"><ele>533.8</ele><time>2015-01-01T12:57:24Z</time></trkpt><trkpt lat="39.325350" lon="-7.201763"><ele>532.1</ele><time>2015-01-01T12:58:06Z</time></trkpt><trkpt lat="39.325382" lon="-7.201902"><ele>531.4</ele><time>2015-01-01T12:58:47Z</time></trkpt><trkpt lat="39.325490" lon="-7.202403"><ele>526.7</ele><time>2015-01-01T12:59:28Z</time></trkpt><trkpt lat="39.325602" lon="-7.202630"><ele>525.2</ele><time>2015-01-01T13:00:09Z</time></trkpt><trkpt lat="39.325691" lon="-7.202759"><ele>524.2</ele><time>2015-01-01T13:00:50Z</time></trkpt><trkpt lat="39.326018" lon="-7.203029"><ele>520.3</ele><time>2015-01-01T13:01:31Z</time></trkpt><trkpt lat="39.326233" lon="-7.203256"><ele>518.0</ele><time>2015-01-01T13:02:12Z</time></trkpt><trkpt lat="39.326498" lon="-7.203758"><ele>516.8</ele><time>2015-01-01T13:02:53Z</time></trkpt><trkpt lat="39.326783" lon="-7.204032"><ele>516.7</ele><time>2015-01-01T13:03:34Z</time></trkpt><trkpt lat="39.326973" lon="-7.204169"><ele>517.2</ele><time>2015-01-01T13:04:15Z</time></trkpt><trkpt lat="39.327562" lon="-7.204700"><ele>518.3</ele><time>2015-01-01T13:04:57Z</time></trkpt><trkpt lat="39.327819" lon="-7.204864"><ele>517.9</ele><time>2015-01-01T13:05:38Z</time></trkpt><trkpt lat="39.328171" lon="-7.205180"><ele>516.9</ele><time>2015-01-01T13:06:19Z</time></trkpt><trkpt lat="39.328199" lon="-7.205252"><ele>517.0</ele><time>2015-01-01T13:07:00Z</time></trkpt><trkpt lat="39.328672" lon="-7.204973"><ele>519.4</ele><time>2015-01-01T13:07:41Z</time></trkpt><trkpt lat="39.328936" lon="-7.204821"><ele>522.0</ele><time>2015-01-01T13:08:22Z</time></trkpt><trkpt lat="39.329133" lon="-7.204738"><ele>523.7</ele><time>2015-01-01T13:09:03Z</time></trkpt><trkpt lat="39.329334" lon="-7.205527"><ele>522.2</ele><time>2015-01-01T13:09:44Z</time></trkpt><trkpt lat="39.329325" lon="-7.205530"><ele>522.1</ele><time>2015-01-01T13:10:25Z</time></trkpt><trkpt lat="39.329128" lon="-7.204749"><ele>523.6</ele><time>2015-01-01T13:11:06Z</time></trkpt><trkpt lat="39.328938" lon="-7.204830"><ele>522.0</ele><time>2015-01-01T13:11:48Z</time></trkpt><trkpt lat="39.328675" lon="-7.204987"><ele>519.4</ele><time>2015-01-01T13:12:29Z</time></trkpt><trkpt lat="39.328201" lon="-7.205263"><ele>517.0</ele><time>2015-01-01T13:13:10Z</time></trkpt><trkpt lat="39.328139" lon="-7.205320"><ele>516.6</ele><time>2015-01-01T13:13:51Z</time></trkpt><trkpt lat="39.328033" lon="-7.205434"><ele>516.0</ele><time>2015-01-01T13:14:32Z</time></trkpt><trkpt lat="39.327942" lon="-7.205551"><ele>516.0</ele><time>2015-01-01T13:15:13Z</time></trkpt><trkpt lat="39.327798" lon="-7.205729"><ele>515.4</ele><time>2015-01-01T13:15:54Z</time></trkpt><trkpt lat="39.327660" lon="-7.205947"><ele>514.4</ele><time>2015-01-01T13:16:35Z</time></trkpt><trkpt lat="39.327621" lon="-7.206076"><ele>513.6</ele><time>2015-01-01T13:17:16Z</time></trkpt><trkpt lat="39.327648" lon="-7.206353"><ele>512.2</ele><time>2015-01-01T13:17:57Z</time></trkpt><trkpt lat="39.327639" lon="-7.206641"><ele>511.1</ele><time>2015-01-01T13:18:39Z</time></trkpt><trkpt lat="39.327612" lon="-7.206850"><ele>510.3</ele><time>2015-01-01T13:19:20Z</time></trkpt><trkpt lat="39.327518" lon="-7.207289"><ele>510.3</ele><time>2015-01-01T13:20:01Z</time></trkpt><trkpt lat="39.327325" lon="-7.207960"><ele>513.3</ele><time>2015-01-01T13:20:42Z</time></trkpt><trkpt lat="39.327370" lon="-7.208205"><ele>516.1</ele><time>2015-01-01T13:21:23Z</time></trkpt><trkpt lat="39.326936" lon="-7.208884"><ele>520.8</ele><time>2015-01-01T13:22:04Z</time></trkpt><trkpt lat="39.326942" lon="-7.208889"><ele>521.0</ele><time>2015-01-01T13:22:45Z</time></trkpt><trkpt lat="39.327375" lon="-7.208216"><ele>516.2</ele><time>2015-01-01T13:23:26Z</time></trkpt><trkpt lat="39.327547" lon="-7.208583"><ele>517.7</ele><time>2015-01-01T13:24:07Z</time></trkpt><trkpt lat="39.327584" lon="-7.208930"><ele>519.5</ele><time>2015-01-01T13:24:48Z</time></trkpt><trkpt lat="39.327555" lon="-7.209440"><ele>520.4</ele><time>2015-01-01T13:25:30Z</time></trkpt><trkpt lat="39.327354" lon="-7.209899"><ele>520.0</ele><time>2015-01-01T13:26:11Z</time></trkpt><trkpt lat="39.327386" lon="-7.210095"><ele>520.2</ele><time>2015-01-01T13:26:52Z</time></trkpt><trkpt lat="39.327597" lon="-7.210221"><ele>520.8</ele><time>2015-01-01T13:27:33Z</time></trkpt><trkpt lat="39.327732" lon="-7.210309"><ele>521.1</ele><time>2015-01-01T13:28:14Z</time></trkpt><trkpt lat="39.327755" lon="-7.210401"><ele>521.4</ele><time>2015-01-01T13:28:55Z</time></trkpt><trkpt lat="39.327735" lon="-7.210505"><ele>521.8</ele><time>2015-01-01T13:29:36Z</time></trkpt><trkpt lat="39.327631" lon="-7.210757"><ele>523.8</ele><time>2015-01-01T13:30:17Z</time></trkpt><trkpt lat="39.327325" lon="-7.211210"><ele>526.9</ele><time>2015-01-01T13:30:58Z</time></trkpt><trkpt lat="39.327218" lon="-7.211483"><ele>527.0</ele><time>2015-01-01T13:31:39Z</time></trkpt><trkpt lat="39.327204" lon="-7.211653"><ele>526.8</ele><time>2015-01-01T13:32:21Z</time></trkpt><trkpt lat="39.327376" lon="-7.212793"><ele>528.0</ele><time>2015-01-01T13:33:02Z</time></trkpt><trkpt lat="39.327552" lon="-7.213091"><ele>527.2</ele><time>2015-01-01T13:33:43Z</time></trkpt><trkpt lat="39.327899" lon="-7.213474"><ele>527.9</ele><time>2015-01-01T13:34:24Z</time></trkpt><trkpt lat="39.328602" lon="-7.214198"><ele>527.2</ele><time>2015-01-01T13:35:05Z</time></trkpt><trkpt lat="39.328075" lon="-7.215030"><ele>530.0</ele><time>2015-01-01T13:35:46Z</time></trkpt><trkpt lat="39.328189" lon="-7.215295"><ele>530.5</ele><time>2015-01-01T13:36:27Z</time></trkpt><trkpt lat="39.328263" lon="-7.215486"><ele>531.5</ele><time>2015-01-01T13:37:08Z</time></trkpt><trkpt lat="39.328552" lon="-7.216001"><ele>534.1</ele><time>2015-01-01T13:37:49Z</time></trkpt><trkpt lat="39.328829" lon="-7.216613"><ele>537.0</ele><time>2015-01-01T13:38:30Z</time></trkpt><trkpt lat="39.328892" lon="-7.217074"><ele>538.4</ele><time>2015-01-01T13:39:12Z</time></trkpt><trkpt lat="39.329008" lon="-7.217499"><ele>540.0</ele><time>2015-01-01T13:39:53Z</time></trkpt><trkpt lat="39.329083" lon="-7.217635"><ele>541.3</ele><time>2015-01-01T13:40:34Z</time></trkpt><trkpt lat="39.329205" lon="-7.217784"><ele>541.9</ele><time>2015-01-01T13:41:15Z</time></trkpt><trkpt lat="39.329266" lon="-7.217864"><ele>542.3</ele><time>2015-01-01T13:41:56Z</time></trkpt><trkpt lat="39.329310" lon="-7.217918"><ele>542.5</ele><time>2015-01-01T13:42:37Z</time></trkpt><trkpt lat="39.329332" lon="-7.217968"><ele>542.8</ele><time>2015-01-01T13:43:18Z</time></trkpt><trkpt lat="39.329342" lon="-7.218047"><ele>543.3</ele><time>2015-01-01T13:43:59Z</time></trkpt><trkpt lat="39.329349" lon="-7.218117"><ele>543.8</ele><time>2015-01-01T13:44:40Z</time></trkpt><trkpt lat="39.329362" lon="-7.218201"><ele>544.3</ele><time>2015-01-01T13:45:21Z</time></trkpt><trkpt lat="39.329427" lon="-7.218401"><ele>545.8</ele><time>2015-01-01T13:46:03Z</time></trkpt><trkpt lat="39.329660" lon="-7.218635"><ele>549.9</ele><time>2015-01-01T13:46:44Z</time></trkpt><trkpt lat="39.329771" lon="-7.218799"><ele>552.5</ele><time>2015-01-01T13:47:25Z</time></trkpt><trkpt lat="39.329768" lon="-7.218939"><ele>554.2</ele><time>2015-01-01T13:48:06Z</time></trkpt><trkpt lat="39.329775" lon="-7.218803"><ele>552.6</ele><time>2015-01-01T13:48:47Z</time></trkpt><trkpt lat="39.329667" lon="-7.218640"><ele>550.0</ele><time>2015-01-01T13:49:28Z</time></trkpt><trkpt lat="39.329426" lon="-7.218405"><ele>545.8</ele><time>2015-01-01T13:50:09Z</time></trkpt><trkpt lat="39.329364" lon="-7.218215"><ele>544.4</ele><time>2015-01-01T13:50:50Z</time></trkpt><trkpt lat="39.329326" lon="-7.218080"><ele>543.6</ele><time>2015-01-01T13:51:31Z</time></trkpt><trkpt lat="39.329299" lon="-7.218060"><ele>543.6</ele><time>2015-01-01T13:52:12Z</time></trkpt><trkpt lat="39.329278" lon="-7.218148"><ele>544.3</ele><time>2015-01-01T13:52:54Z</time></trkpt><trkpt lat="39.329265" lon="-7.218310"><ele>545.5</ele><time>2015-01-01T13:53:35Z</time></trkpt><trkpt lat="39.329248" lon="-7.218537"><ele>547.4</ele><time>2015-01-01T13:54:16Z</time></trkpt><trkpt lat="39.329344" lon="-7.218970"><ele>552.4</ele><time>2015-01-01T13:54:57Z</time></trkpt><trkpt lat="39.329434" lon="-7.219277"><ele>555.8</ele><time>2015-01-01T13:55:38Z</time></trkpt><trkpt lat="39.329866" lon="-7.220013"><ele>560.1</ele><time>2015-01-01T13:56:19Z</time></trkpt><trkpt lat="39.330908" lon="-7.221929"><ele>563.9</ele><time>2015-01-01T13:57:00Z</time></trkpt><trkpt lat="39.331091" lon="-7.222441"><ele>566.5</ele><time>2015-01-01T13:57:41Z</time></trkpt><trkpt lat="39.331198" lon="-7.222798"><ele>571.2</ele><time>2015-01-01T13:58:22Z</time></trkpt><trkpt lat="39.331327" lon="-7.223427"><ele>575.2</ele><time>2015-01-01T13:59:03Z</time></trkpt><trkpt lat="39.331395" lon="-7.224011"><ele>579.3</ele><time>2015-01-01T13:59:45Z</time></trkpt><trkpt lat="39.331407" lon="-7.224208"><ele>581.3</ele><time>2015-01-01T14:00:26Z</time></trkpt><trkpt lat="39.331391" lon="-7.224312"><ele>582.6</ele><time>2015-01-01T14:01:07Z</time></trkpt><trkpt lat="39.331365" lon="-7.224378"><ele>583.7</ele><time>2015-01-01T14:01:48Z</time></trkpt><trkpt lat="39.331283" lon="-7.224537"><ele>585.9</ele><time>2015-01-01T14:02:29Z</time></trkpt><trkpt lat="39.330955" lon="-7.224853"><ele>590.7</ele><time>2015-01-01T14:03:10Z</time></trkpt><trkpt lat="39.330884" lon="-7.225249"><ele>592.4</ele><time>2015-01-01T14:03:51Z</time></trkpt><trkpt lat="39.331024" lon="-7.225616"><ele>589.8</ele><time>2015-01-01T14:04:32Z</time></trkpt><trkpt lat="39.331386" lon="-7.226350"><ele>578.5</ele><time>2015-01-01T14:05:13Z</time></trkpt><trkpt lat="39.331474" lon="-7.226496"><ele>575.5</ele><time>2015-01-01T14:05:54Z</time></trkpt><trkpt lat="39.331620" lon="-7.226665"><ele>571.5</ele><time>2015-01-01T14:06:36Z</time></trkpt><trkpt lat="39.331679" lon="-7.226576"><ele>572.3</ele><time>2015-01-01T14:07:17Z</time></trkpt><trkpt lat="39.331956" lon="-7.226133"><ele>577.8</ele><time>2015-01-01T14:07:58Z</time></trkpt><trkpt lat="39.332372" lon="-7.226247"><ele>576.7</ele><time>2015-01-01T14:08:39Z</time></trkpt><trkpt lat="39.332676" lon="-7.226452"><ele>573.4</ele><time>2015-01-01T14:09:20Z</time></trkpt><trkpt lat="39.332908" lon="-7.226514"><ele>571.4</ele><time>2015-01-01T14:10:01Z</time></trkpt><trkpt lat="39.333181" lon="-7.226500"><ele>571.9</ele><time>2015-01-01T14:10:42Z</time></trkpt><trkpt lat="39.332909" lon="-7.226512"><ele>571.4</ele><time>2015-01-01T14:11:23Z</time></trkpt><trkpt lat="39.332685" lon="-7.226455"><ele>573.3</ele><time>2015-01-01T14:12:04Z</time></trkpt><trkpt lat="39.332380" lon="-7.226246"><ele>576.7</ele><time>2015-01-01T14:12:45Z</time></trkpt><trkpt lat="39.331950" lon="-7.226143"><ele>577.8</ele><time>2015-01-01T14:13:27Z</time></trkpt><trkpt lat="39.331640" lon="-7.226635"><ele>571.7</ele><time>2015-01-01T14:14:08Z</time></trkpt><trkpt lat="39.331403" lon="-7.227230"><ele>566.7</ele><time>2015-01-01T14:14:49Z</time></trkpt><trkpt lat="39.331130" lon="-7.228181"><ele>557.0</ele><time>2015-01-01T14:15:30Z</time></trkpt><trkpt lat="39.330865" lon="-7.228876"><ele>548.7</ele><time>2015-01-01T14:16:11Z</time></trkpt><trkpt lat="39.330782" lon="-7.229053"><ele>546.8</ele><time>2015-01-01T14:16:52Z</time></trkpt><trkpt lat="39.330287" lon="-7.229967"><ele>529.0</ele><time>2015-01-01T14:17:33Z</time></trkpt><trkpt lat="39.329920" lon="-7.230407"><ele>522.8</ele><time>2015-01-01T14:18:14Z</time></trkpt><trkpt lat="39.329516" lon="-7.230822"><ele>513.6</ele><time>2015-01-01T14:18:55Z</time></trkpt><trkpt lat="39.329379" lon="-7.230982"><ele>511.2</ele><time>2015-01-01T14:19:36Z</time></trkpt><trkpt lat="39.329275" lon="-7.231115"><ele>509.4</ele><time>2015-01-01T14:20:18Z</time></trkpt><trkpt lat="39.329198" lon="-7.231099"><ele>509.2</ele><time>2015-01-01T14:20:59Z</time></trkpt><trkpt lat="39.328970" lon="-7.230864"><ele>510.3</ele><time>2015-01-01T14:21:40Z</time></trkpt><trkpt lat="39.328146" lon="-7.230190"><ele>507.7</ele><time>2015-01-01T14:22:21Z</time></trkpt><trkpt lat="39.327894" lon="-7.230027"><ele>507.2</ele><time>2015-01-01T14:23:02Z</time></trkpt><trkpt lat="39.327354" lon="-7.229502"><ele>508.5</ele><time>2015-01-01T14:23:43Z</time></trkpt><trkpt lat="39.326897" lon="-7.229131"><ele>504.8</ele><time>2015-01-01T14:24:24Z</time></trkpt><trkpt lat="39.326591" lon="-7.228911"><ele>502.6</ele><time>2015-01-01T14:25:05Z</time></trkpt><trkpt lat="39.325454" lon="-7.228204"><ele>498.9</ele><time>2015-01-01T14:25:46Z</time></trkpt><trkpt lat="39.325107" lon="-7.227922"><ele>495.5</ele><time>2015-01-01T14:26:27Z</time></trkpt><trkpt lat="39.324907" lon="-7.227638"><ele>495.3</ele><time>2015-01-01T14:27:09Z</time></trkpt><trkpt lat="39.324590" lon="-7.227106"><ele>489.9</ele><time>2015-01-01T14:27:50Z</time></trkpt><trkpt lat="39.324503" lon="-7.227144"><ele>488.2</ele><time>2015-01-01T14:28:31Z</time></trkpt><trkpt lat="39.324238" lon="-7.227260"><ele>487.0</ele><time>2015-01-01T14:29:12Z</time></trkpt><trkpt lat="39.323950" lon="-7.227443"><ele>489.7</ele><time>2015-01-01T14:29:53Z</time></trkpt><trkpt lat="39.323791" lon="-7.227446"><ele>490.8</ele><time>2015-01-01T14:30:34Z</time></trkpt><trkpt lat="39.323733" lon="-7.227423"><ele>491.3</ele><time>2015-01-01T14:31:15Z</time></trkpt><trkpt lat="39.323521" lon="-7.227192"><ele>494.8</ele><time>2015-01-01T14:31:56Z</time></trkpt><trkpt lat="39.323436" lon="-7.227100"><ele>496.0</ele><time>2015-01-01T14:32:37Z</time></trkpt><trkpt lat="39.323145" lon="-7.227260"><ele>497.2</ele><time>2015-01-01T14:33:18Z</time></trkpt><trkpt lat="39.322923" lon="-7.227329"><ele>499.0</ele><time>2015-01-01T14:34:00Z</time></trkpt><trkpt lat="39.322903" lon="-7.227514"><ele>498.6</ele><time>2015-01-01T14:34:41Z</time></trkpt><trkpt lat="39.322849" lon="-7.227730"><ele>499.2</ele><time>2015-01-01T14:35:22Z</time></trkpt><trkpt lat="39.322807" lon="-7.227920"><ele>500.1</ele><time>2015-01-01T14:36:03Z</time></trkpt><trkpt lat="39.322710" lon="-7.228064"><ele>501.4</ele><time>2015-01-01T14:36:44Z</time></trkpt><trkpt lat="39.322641" lon="-7.228165"><ele>501.4</ele><time>2015-01-01T14:37:25Z</time></trkpt><trkpt lat="39.322622" lon="-7.228356"><ele>500.6</ele><time>2015-01-01T14:38:06Z</time></trkpt><trkpt lat="39.322519" lon="-7.228579"><ele>500.8</ele><time>2015-01-01T14:38:47Z</time></trkpt><trkpt lat="39.322400" lon="-7.228742"><ele>501.3</ele><time>2015-01-01T14:39:28Z</time></trkpt><trkpt lat="39.322304" lon="-7.228959"><ele>501.6</ele><time>2015-01-01T14:40:09Z</time></trkpt></trkseg></trk></gpx>